Aérodrome :
LOGIN :

S'inscrire | Disclaimer

   EN    FR    IT 

 










Légende :    VFR   VFR Marginal   IFR   IFR Intensif   IFR Très Intensif
Visi : 
Plafond : 
>= 8 km
>= 3000ft
5 à 8 km
1000 à 3000 ft
1500m à 5 km
500 à 1000 ft
800 à 1500m
200 à 500 ft
< 800m
< 200 ft
Symboles :   Orages  Brouillard  Fortes neiges  Fortes précipitations  Vent > 20 kt
SIGMETs :   Divers  Orages  Givrage  Turbulence  Onde Orograph.  Cendres Volcan.






- Altitude de l'aérodrome : 784 ft
- Code IATA : TZL


LQTZ - Tuzla

DERNIER METAR :
  • 141200Z 28004KT 240V320 9999 FEW018 07/05 Q1001

METARs EXPIRÉS :
  • 141130Z 29006KT 250V320 9999 SCT014 BKN028 07/05 Q1001
  • 141100Z 31004KT 270V340 9999 FEW007 SCT010 BKN028 06/05 Q1001
  • 141030Z 29005KT 8000 FEW008 SCT012 OVC025 05/04 Q1001
  • 141000Z 30009KT 6000 FEW008 BKN012 OVC020 05/04 Q1000
  • 140930Z 29006KT 4000 -RA BR FEW005 BKN008 OVC016 05/04 Q1000

TAF TAF LQTZ
Valide du 14 à 12h jusqu'au 15 à 12h UTC


141100Z 1412/1512 29006KT 9999 SCT015 BKN035 TX07/1413Z TNM03/1506Z
TEMPO 1418/1510 3000 BR
PROB40 1421/1509 0200 FZFG BKN002



MET'MAP, la Météo Aéronautique d'un coup d'oeil ! - Copyright ORBIFLY Décembre 2007 - Disclaimer

ORBIFLY MET'MAP TEAM :

Programmation & Développement : Alexandra Zaïnal
Sur une idée originale de : Baudouin d'Aumeries
Assistance à la programmation : Marc-Olivier Méhu
Soutien technique & logistique : Manuel Goepfert

Contact : metmap@orbifly.com




SOURCES & CREDITS :

   NOAA